Erevan, Arménie

08:20 AMT le 04 Mars 2015 (GMT +0400)
Zvartnots | Change Station
CLOSE
Current Station
Aéroport
Location: Zvartnots,
Altitude: 2838 ft
Stations météo à proximité

Alt. 2838 ft 40.15 °N, 44.40 °E | Updated 20 minutes ago

Mostly Cloudy
Nuageux
30 ° F
Paraît 30 ° F
N
0
Vent Variable Vent de Nord

Aujourd'hui
Haut(e) -- | Bas -- ° F
--% Risque de précip.
Hier
Haut(e) -- | Bas -- ° F
Precip. -- pouce
7:31 AM 6:56 PM
Lune gibbeuse croissante, 98% visible
Pression 29.95 pouce
Visibilité 3.7 Miles terrestres
Nuages Nuageux 10000 ft
Point de rosée 25 ° F
Humidité 80%
Précipitations 0.00 pouce
Profondeur de la couche neigeuse Non disponible.
UV 0 sur 12
Pollen Non disponible.
Qualité de l'air Non disponible.
Flu Activity Non disponible.
METAR UDYZ 040400Z 00000MPS 6000 BKN100 M01/M04 Q1014 R09/0///70 NOSIG

More Conditions Fewer Conditions

Pression 29.95 pouce
Visibilité 3.7 Miles terrestres
Nuages Nuageux 10000 ft
Point de rosée 25 ° F
Humidité 80%
Précipitations 0.00 pouce
Profondeur de la couche neigeuse Non disponible.
UV 0 sur 12
Pollen Non disponible.
Qualité de l'air Non disponible.
Flu Activity Non disponible.
METAR UDYZ 040400Z 00000MPS 6000 BKN100 M01/M04 Q1014 R09/0///70 NOSIG

More Conditions Fewer Conditions

10-Day Weather Forecast

Almanac

Astronomie

Mar. 04, 2015 Lever Coucher
Temps réel
Crépuscule civil
Crépuscule nautique
Crépuscule astronomique
Lune
Durée de lumière visible
Longueur du jour
Tomorrow will be .
, % of the Moon is Illuminated

Extrêmes aujourd'hui

Country Highs Country Lows

Community

WunderPhotos

Upload Photos

1,802,383 Photos téléchargées !

WunderBlogs® & News

Nearby

Qualité de l'air

  Qualité de l'air Indice de la qualité de l'air Polluant
Not available.

Épaisseur de neige

Station Depth Altitude

Activité sismique

Ville Distance Mag. Time & Date
Minimum magnitude displayed is 2.5.

Températures des eaux côtières

Lieu Température

Stations météo à proximité